createdAt,value
2019-04-29T00:04:05.737Z,8.18
2019-04-29T00:09:13.808Z,6.60
2019-04-29T00:14:17.435Z,6.97
2019-04-29T00:19:38.556Z,6.90
2019-04-29T00:24:42.110Z,7.10
2019-04-29T00:29:45.496Z,8.13
2019-04-29T00:34:48.884Z,7.92
2019-04-29T00:40:09.743Z,9.55
2019-04-29T00:45:14.337Z,9.63
2019-04-29T00:50:17.722Z,6.95
2019-04-29T00:55:22.744Z,9.85
2019-04-29T01:00:36.575Z,8.18
2019-04-29T01:05:39.959Z,8.95
2019-04-29T01:10:43.347Z,10.40
2019-04-29T01:15:46.734Z,12.68
2019-04-29T01:20:50.191Z,9.00
2019-04-29T01:25:55.210Z,9.38
2019-04-29T01:31:09.992Z,7.42
2019-04-29T01:36:17.730Z,9.98
2019-04-29T01:41:25.784Z,9.18
2019-04-29T01:46:29.713Z,9.68
2019-04-29T01:51:33.112Z,10.93
2019-04-29T01:56:36.487Z,9.93
2019-04-29T02:01:39.877Z,10.53
2019-04-29T02:06:43.265Z,8.90
2019-04-29T02:11:46.654Z,9.53
2019-04-29T02:16:50.042Z,9.18
2019-04-29T02:22:12.898Z,9.65
2019-04-29T02:27:16.288Z,9.50
2019-04-29T02:32:19.673Z,9.88
2019-04-29T02:37:24.937Z,9.18
2019-04-29T02:42:46.009Z,10.63
2019-04-29T02:47:49.404Z,9.83
2019-04-29T02:52:53.030Z,7.03
2019-04-29T02:57:58.057Z,7.30
2019-04-29T03:03:08.730Z,8.80
2019-04-29T03:08:12.439Z,9.58
2019-04-29T03:13:15.901Z,11.95
2019-04-29T03:18:20.765Z,11.83
2019-04-29T03:23:26.004Z,10.32
2019-04-29T03:28:29.459Z,10.88
2019-04-29T03:33:32.927Z,8.55
2019-04-29T03:38:36.306Z,11.28
2019-04-29T03:43:39.712Z,11.95
2019-04-29T03:48:43.089Z,17.23
2019-04-29T03:53:46.478Z,11.68
2019-04-29T03:58:49.866Z,8.95
2019-04-29T04:04:03.562Z,10.63
2019-04-29T04:09:08.660Z,8.78
2019-04-29T04:14:12.047Z,13.45
2019-04-29T04:19:15.506Z,13.20
2019-04-29T04:24:18.901Z,15.40
2019-04-29T04:29:22.296Z,11.65
2019-04-29T04:34:25.681Z,10.85
2019-04-29T04:39:30.952Z,9.30
2019-04-29T04:44:49.239Z,13.80
2019-04-29T04:49:52.666Z,12.25
2019-04-29T04:54:56.074Z,14.33
2019-04-29T04:59:59.447Z,17.73
2019-04-29T05:05:02.836Z,14.63
2019-04-29T05:10:06.289Z,17.37
2019-04-29T05:15:09.823Z,13.85
2019-04-29T05:20:13.354Z,12.30
2019-04-29T05:25:16.984Z,14.50
2019-04-29T05:30:20.618Z,18.00
2019-04-29T05:35:40.219Z,16.07
2019-04-29T05:40:50.100Z,14.07
2019-04-29T05:46:07.160Z,13.70
2019-04-29T05:51:27.283Z,14.70
2019-04-29T05:56:31.751Z,13.58
2019-04-29T06:01:35.140Z,12.60
2019-04-29T06:06:38.540Z,14.60
2019-04-29T06:11:41.939Z,13.35
2019-04-29T06:16:45.330Z,16.75
2019-04-29T06:21:48.726Z,13.28
2019-04-29T06:26:52.362Z,13.75
2019-04-29T06:31:55.992Z,14.73
2019-04-29T06:36:59.380Z,13.48
2019-04-29T06:42:02.769Z,13.95
2019-04-29T06:47:06.166Z,13.35
2019-04-29T06:52:09.560Z,15.40
2019-04-29T06:57:12.955Z,15.75
2019-04-29T07:02:16.600Z,19.27
2019-04-29T07:07:19.996Z,16.97
2019-04-29T07:12:23.394Z,14.50
2019-04-29T07:17:26.792Z,11.88
2019-04-29T07:22:31.198Z,14.78
2019-04-29T07:27:42.798Z,13.40
2019-04-29T07:32:42.109Z,15.75
2019-04-29T07:37:44.907Z,16.07
2019-04-29T07:42:48.540Z,18.60
2019-04-29T07:47:56.615Z,18.60
2019-04-29T07:52:58.623Z,19.60
2019-04-29T07:58:02.022Z,18.37
2019-04-29T08:03:07.662Z,19.25
2019-04-29T08:08:11.336Z,14.03
2019-04-29T08:13:15.167Z,19.92
2019-04-29T08:18:18.799Z,16.77
2019-04-29T08:23:22.194Z,16.70
2019-04-29T08:28:25.596Z,19.20
2019-04-29T08:33:28.989Z,14.83
2019-04-29T08:38:32.388Z,15.85
2019-04-29T08:43:57.823Z,19.05
2019-04-29T08:49:01.033Z,19.60
2019-04-29T08:54:03.886Z,18.10
2019-04-29T08:59:07.282Z,17.87
2019-04-29T09:04:10.684Z,16.52
2019-04-29T09:09:28.844Z,17.52
2019-04-29T09:14:19.430Z,18.15
2019-04-29T09:19:22.826Z,19.73
2019-04-29T09:24:26.225Z,14.47
2019-04-29T09:29:38.937Z,14.00
2019-04-29T09:34:42.331Z,13.65
2019-04-29T09:39:47.199Z,15.43
2019-04-29T09:45:08.068Z,16.25
2019-04-29T09:50:11.700Z,18.52
2019-04-29T09:55:19.906Z,14.15
2019-04-29T10:00:40.817Z,15.03
2019-04-29T10:05:52.793Z,15.75
2019-04-29T10:10:57.623Z,14.43
2019-04-29T10:16:07.726Z,12.63
2019-04-29T10:21:16.722Z,13.55
2019-04-29T10:26:17.939Z,11.57
2019-04-29T10:31:22.938Z,16.55
2019-04-29T10:36:26.568Z,13.28
2019-04-29T10:41:36.054Z,13.58
2019-04-29T10:46:50.084Z,13.72
2019-04-29T10:51:57.952Z,12.25
2019-04-29T10:56:59.343Z,11.68
2019-04-29T11:02:14.314Z,15.20
2019-04-29T11:07:26.327Z,11.05
2019-04-29T11:12:24.947Z,11.28
2019-04-29T11:17:28.811Z,6.65
2019-04-29T11:22:38.233Z,10.38
2019-04-29T11:27:40.661Z,9.40
2019-04-29T11:32:51.568Z,8.13
2019-04-29T11:37:59.656Z,11.85
2019-04-29T11:43:00.139Z,10.80
2019-04-29T11:48:03.772Z,11.30
2019-04-29T11:53:08.736Z,9.65
2019-04-29T11:58:19.507Z,10.38
2019-04-29T12:03:29.970Z,12.18
2019-04-29T12:08:33.367Z,13.22
2019-04-29T12:13:50.267Z,12.15
2019-04-29T12:18:58.210Z,10.75
2019-04-29T12:24:01.882Z,10.55
2019-04-29T12:29:05.333Z,13.43
2019-04-29T12:34:19.487Z,10.32
2019-04-29T12:39:44.958Z,11.53
2019-04-29T12:44:50.767Z,13.20
2019-04-29T12:49:54.168Z,12.78
2019-04-29T12:55:01.727Z,13.32
2019-04-29T13:00:07.702Z,11.73
2019-04-29T13:05:10.159Z,10.25
2019-04-29T13:10:21.139Z,10.23
2019-04-29T13:15:48.442Z,9.80
2019-04-29T13:20:52.124Z,13.40
2019-04-29T13:25:55.877Z,10.30
2019-04-29T13:30:59.374Z,8.90
2019-04-29T13:36:02.826Z,9.68
2019-04-29T13:41:13.635Z,10.35
2019-04-29T13:46:15.836Z,11.80
2019-04-29T13:51:35.343Z,10.95
2019-04-29T13:56:34.955Z,11.57
2019-04-29T14:01:33.668Z,10.05
2019-04-29T14:06:39.629Z,11.03
2019-04-29T14:11:43.020Z,9.00
2019-04-29T14:16:47.540Z,9.25
2019-04-29T14:21:51.775Z,8.55
2019-04-29T14:26:55.238Z,11.30
2019-04-29T14:32:01.347Z,11.20
2019-04-29T14:37:19.660Z,12.20
2019-04-29T14:42:20.768Z,10.55
2019-04-29T14:47:25.893Z,10.50
2019-04-29T14:52:29.211Z,11.55
2019-04-29T14:57:32.610Z,12.47
2019-04-29T15:02:36.276Z,13.20
2019-04-29T15:07:39.706Z,10.88
2019-04-29T15:12:51.758Z,15.38
2019-04-29T15:17:51.495Z,12.37
2019-04-29T15:22:55.275Z,14.13
2019-04-29T15:27:58.664Z,14.73
2019-04-29T15:33:02.087Z,12.13
2019-04-29T15:38:05.497Z,12.90
2019-04-29T15:43:09.232Z,14.47
2019-04-29T15:48:12.805Z,17.98
2019-04-29T15:53:16.207Z,17.42
2019-04-29T15:58:22.575Z,18.05
2019-04-29T16:03:24.761Z,14.90
2019-04-29T16:08:32.722Z,17.15
2019-04-29T16:13:36.191Z,20.65
2019-04-29T16:18:39.772Z,22.05
2019-04-29T16:23:43.403Z,23.07
2019-04-29T16:28:46.804Z,22.93
2019-04-29T16:33:54.608Z,21.75
2019-04-29T16:38:55.317Z,18.82
2019-04-29T16:43:59.028Z,20.43
2019-04-29T16:49:02.490Z,15.53
2019-04-29T16:54:05.881Z,16.60
2019-04-29T16:59:09.688Z,15.25
2019-04-29T17:04:13.118Z,17.85
2019-04-29T17:09:23.051Z,17.98
2019-04-29T17:14:23.599Z,15.10
2019-04-29T17:19:26.935Z,16.07
2019-04-29T17:24:30.337Z,13.72
2019-04-29T17:29:55.549Z,15.75
2019-04-29T17:35:00.057Z,12.55
2019-04-29T17:40:05.399Z,14.58
2019-04-29T17:45:12.255Z,13.18
2019-04-29T17:50:30.427Z,18.37
2019-04-29T17:55:38.750Z,13.83
2019-04-29T18:00:59.425Z,14.05
2019-04-29T18:11:15.006Z,12.13
2019-04-29T18:16:26.061Z,11.10
2019-04-29T18:21:27.077Z,11.10
2019-04-29T18:26:32.110Z,12.82
2019-04-29T18:31:35.806Z,10.35
2019-04-29T18:36:39.193Z,12.70
2019-04-29T18:41:42.581Z,13.65
2019-04-29T18:46:53.396Z,11.93
2019-04-29T18:51:51.105Z,11.45
2019-04-29T18:56:55.908Z,14.43
2019-04-29T19:02:01.015Z,15.55
2019-04-29T19:07:05.426Z,16.60
2019-04-29T19:12:09.026Z,16.37
2019-04-29T19:17:12.666Z,16.05
2019-04-29T19:22:16.191Z,21.55
2019-04-29T19:27:19.591Z,20.08
2019-04-29T19:32:24.676Z,19.15
2019-04-29T19:37:32.230Z,19.07
2019-04-29T19:42:35.922Z,21.65
2019-04-29T19:47:38.545Z,22.32
2019-04-29T19:52:41.938Z,21.25
2019-04-29T19:57:47.988Z,23.65
2019-04-29T20:02:51.206Z,21.97
2019-04-29T20:07:58.341Z,22.22
2019-04-29T20:13:00.348Z,23.32
2019-04-29T20:18:26.094Z,22.67
2019-04-29T20:23:28.076Z,21.75
2019-04-29T20:28:31.653Z,21.50
2019-04-29T20:33:35.286Z,24.40
2019-04-29T20:38:39.303Z,25.30
2019-04-29T20:43:42.934Z,25.10
2019-04-29T20:48:50.450Z,27.10
2019-04-29T20:54:09.112Z,28.17
2019-04-29T20:59:15.322Z,25.17
2019-04-29T21:04:30.992Z,28.90
2019-04-29T21:09:27.471Z,23.65
2019-04-29T21:14:33.956Z,26.37
2019-04-29T21:19:36.171Z,27.77
2019-04-29T21:24:39.571Z,28.77
2019-04-29T21:29:42.966Z,28.95
2019-04-29T21:34:51.070Z,25.95
2019-04-29T21:40:07.138Z,24.50
2019-04-29T21:45:12.051Z,30.23
2019-04-29T21:50:17.030Z,26.00
2019-04-29T21:55:25.142Z,26.55
2019-04-29T22:00:26.024Z,28.62
2019-04-29T22:05:29.428Z,28.95
2019-04-29T22:10:35.024Z,30.00
2019-04-29T22:15:42.318Z,27.45
2019-04-29T22:20:44.461Z,28.32
2019-04-29T22:25:47.864Z,26.20
2019-04-29T22:30:54.788Z,26.17
2019-04-29T22:35:56.375Z,27.25
2019-04-29T22:41:01.409Z,25.23
2019-04-29T22:46:09.279Z,28.42
2019-04-29T22:51:13.925Z,30.62
2019-04-29T22:56:15.990Z,31.25
2019-04-29T23:01:19.392Z,26.82
2019-04-29T23:06:23.031Z,29.48
2019-04-29T23:11:26.432Z,30.43
2019-04-29T23:16:31.553Z,29.63
2019-04-29T23:21:47.251Z,28.73
2019-04-29T23:26:50.683Z,33.35
2019-04-29T23:31:55.388Z,34.80
2019-04-29T23:36:58.865Z,30.50
2019-04-29T23:42:06.423Z,31.05
2019-04-29T23:47:10.255Z,38.30
2019-04-29T23:52:13.460Z,37.75
2019-04-29T23:57:23.547Z,35.98
